createdAt,value
2023-01-26T00:00:37.462Z,5.80
2023-01-26T00:03:46.195Z,5.80
2023-01-26T00:06:56.057Z,5.80
2023-01-26T00:10:04.753Z,5.80
2023-01-26T00:13:13.374Z,5.80
2023-01-26T00:16:22.166Z,5.80
2023-01-26T00:19:30.609Z,5.90
2023-01-26T00:22:40.446Z,5.90
2023-01-26T00:25:48.863Z,5.90
2023-01-26T00:28:57.339Z,5.90
2023-01-26T00:32:06.302Z,5.90
2023-01-26T00:35:14.944Z,5.90
2023-01-26T00:38:25.115Z,5.90
2023-01-26T00:41:50.735Z,5.90
2023-01-26T00:44:59.214Z,5.90
2023-01-26T00:48:08.135Z,6.00
2023-01-26T00:51:16.548Z,5.90
2023-01-26T00:54:26.408Z,5.90
2023-01-26T00:57:34.891Z,6.00
2023-01-26T01:00:45.077Z,6.00
2023-01-26T01:03:53.557Z,6.00
2023-01-26T01:07:02.352Z,5.90
2023-01-26T01:10:13.215Z,5.90
2023-01-26T01:13:21.865Z,5.90
2023-01-26T01:16:30.667Z,6.00
2023-01-26T01:19:39.160Z,5.90
2023-01-26T01:22:47.895Z,5.90
2023-01-26T01:26:01.802Z,5.90
2023-01-26T01:29:14.978Z,5.90
2023-01-26T01:32:23.578Z,5.90
2023-01-26T01:35:31.997Z,5.90
2023-01-26T01:38:40.368Z,5.90
2023-01-26T01:41:50.190Z,5.90
2023-01-26T01:45:37.299Z,5.90
2023-01-26T01:48:53.052Z,5.90
2023-01-26T01:52:06.088Z,5.90
2023-01-26T01:55:16.953Z,5.90
2023-01-26T01:58:28.322Z,5.90
2023-01-26T02:01:36.898Z,5.90
2023-01-26T02:04:46.496Z,5.90
2023-01-26T02:07:55.505Z,5.90
2023-01-26T02:11:08.719Z,5.90
2023-01-26T02:14:19.031Z,5.90
2023-01-26T02:17:27.517Z,5.80
2023-01-26T02:20:43.687Z,5.80
2023-01-26T02:24:14.780Z,5.80
2023-01-26T02:27:24.701Z,5.80
2023-01-26T02:30:33.469Z,5.80
2023-01-26T02:33:43.239Z,5.80
2023-01-26T02:36:59.023Z,5.80
2023-01-26T02:40:14.699Z,5.80
2023-01-26T02:43:27.585Z,5.80
2023-01-26T02:46:36.096Z,5.70
2023-01-26T02:49:50.441Z,5.70
2023-01-26T02:53:00.692Z,5.70
2023-01-26T02:56:10.465Z,5.70
2023-01-26T02:59:20.378Z,5.70
2023-01-26T03:02:29.420Z,5.60
2023-01-26T03:05:38.722Z,5.60
2023-01-26T03:08:47.108Z,5.50
2023-01-26T03:11:55.896Z,5.40
2023-01-26T03:15:24.398Z,5.40
2023-01-26T03:18:51.783Z,5.40
2023-01-26T03:22:20.646Z,5.40
2023-01-26T03:25:46.620Z,5.30
2023-01-26T03:28:55.120Z,5.20
2023-01-26T03:32:05.149Z,5.20
2023-01-26T03:35:16.111Z,5.10
2023-01-26T03:38:25.336Z,5.10
2023-01-26T03:41:53.624Z,5.00
2023-01-26T03:45:19.375Z,5.00
2023-01-26T03:48:48.492Z,4.90
2023-01-26T03:52:14.730Z,4.80
2023-01-26T03:55:40.645Z,4.80
2023-01-26T03:58:51.932Z,4.80
2023-01-26T04:02:19.020Z,4.70
2023-01-26T04:05:46.040Z,4.70
2023-01-26T04:08:54.690Z,4.70
2023-01-26T04:12:03.288Z,4.70
2023-01-26T04:15:29.481Z,4.70
2023-01-26T04:18:55.294Z,4.70
2023-01-26T04:22:05.169Z,4.70
2023-01-26T04:25:17.279Z,4.60
2023-01-26T04:28:25.670Z,4.50
2023-01-26T04:31:34.380Z,4.50
2023-01-26T04:34:43.084Z,4.50
2023-01-26T04:38:01.794Z,4.20
2023-01-26T04:41:10.316Z,4.10
2023-01-26T04:44:25.125Z,4.10
2023-01-26T04:47:33.686Z,4.00
2023-01-26T04:50:42.210Z,4.00
2023-01-26T04:53:52.643Z,3.80
2023-01-26T04:57:02.614Z,3.70
2023-01-26T05:00:13.001Z,3.70
2023-01-26T05:03:23.157Z,3.80
2023-01-26T05:06:32.022Z,3.90
2023-01-26T05:09:42.457Z,3.90
2023-01-26T05:13:03.543Z,3.90
2023-01-26T05:16:16.320Z,3.90
2023-01-26T05:19:47.532Z,3.80
2023-01-26T05:23:01.928Z,3.70
2023-01-26T05:26:11.770Z,3.50
2023-01-26T05:29:40.409Z,3.30
2023-01-26T05:32:48.958Z,3.40
2023-01-26T05:35:58.720Z,3.40
2023-01-26T05:39:07.410Z,3.20
2023-01-26T05:42:17.958Z,3.10
2023-01-26T05:45:52.639Z,3.00
2023-01-26T05:49:03.291Z,2.90
2023-01-26T05:52:14.167Z,2.80
2023-01-26T05:55:22.571Z,2.90
2023-01-26T05:58:32.613Z,2.80
2023-01-26T06:01:41.134Z,2.80
2023-01-26T06:04:51.414Z,2.90
2023-01-26T06:08:00.472Z,2.80
2023-01-26T06:11:19.473Z,2.70
2023-01-26T06:14:51.342Z,2.70
2023-01-26T06:18:02.280Z,2.60
2023-01-26T06:21:10.771Z,2.50
2023-01-26T06:24:19.496Z,2.40
2023-01-26T06:27:28.061Z,2.40
2023-01-26T06:30:38.137Z,2.30
2023-01-26T06:33:51.289Z,2.30
2023-01-26T06:36:59.835Z,2.30
2023-01-26T06:40:13.664Z,2.20
2023-01-26T06:43:22.174Z,2.20
2023-01-26T06:46:32.231Z,2.20
2023-01-26T06:49:40.950Z,2.20
2023-01-26T06:52:55.904Z,2.00
2023-01-26T06:56:31.665Z,1.90
2023-01-26T06:59:58.603Z,1.80
2023-01-26T07:03:28.674Z,1.80
2023-01-26T07:06:37.127Z,1.70
2023-01-26T07:09:45.578Z,1.80
2023-01-26T07:12:53.956Z,1.80
2023-01-26T07:16:03.028Z,1.60
2023-01-26T07:19:13.072Z,1.50
2023-01-26T07:22:21.456Z,1.50
2023-01-26T07:25:29.970Z,1.50
2023-01-26T07:28:40.169Z,1.60
2023-01-26T07:31:48.913Z,1.60
2023-01-26T07:34:58.782Z,1.60
2023-01-26T07:38:07.604Z,1.60
2023-01-26T07:41:15.949Z,1.60
2023-01-26T07:44:24.376Z,1.60
2023-01-26T07:47:32.800Z,1.70
2023-01-26T07:50:42.677Z,1.80
2023-01-26T07:53:51.221Z,1.90
2023-01-26T07:56:59.861Z,1.90
2023-01-26T08:00:10.346Z,2.00
2023-01-26T08:03:25.111Z,2.10
2023-01-26T08:06:34.893Z,2.30
2023-01-26T08:09:43.410Z,2.40
2023-01-26T08:12:51.795Z,2.50
2023-01-26T08:16:04.574Z,2.60
2023-01-26T08:19:13.160Z,2.60
2023-01-26T08:22:22.969Z,2.70
2023-01-26T08:25:32.970Z,2.80
2023-01-26T08:28:42.040Z,2.80
2023-01-26T08:31:50.542Z,2.80
2023-01-26T08:34:59.218Z,2.80
2023-01-26T08:38:08.993Z,2.90
2023-01-26T08:41:17.379Z,2.90
2023-01-26T08:44:25.824Z,3.00
2023-01-26T08:47:34.415Z,3.10
2023-01-26T08:50:42.963Z,3.20
2023-01-26T08:53:54.504Z,3.30
2023-01-26T08:57:02.955Z,3.30
2023-01-26T09:00:13.251Z,3.50
2023-01-26T09:03:22.038Z,3.50
2023-01-26T09:06:33.063Z,3.60
2023-01-26T09:09:42.890Z,3.60
2023-01-26T09:12:51.279Z,3.70
2023-01-26T09:15:59.756Z,3.80
2023-01-26T09:19:08.201Z,3.80
2023-01-26T09:22:16.744Z,3.90
2023-01-26T09:25:26.700Z,4.00
2023-01-26T09:28:35.187Z,4.00
2023-01-26T09:31:44.637Z,4.10
2023-01-26T09:34:53.434Z,4.20
2023-01-26T09:38:01.846Z,4.20
2023-01-26T09:41:29.184Z,4.30
2023-01-26T09:44:45.144Z,4.40
2023-01-26T09:48:16.753Z,4.40
2023-01-26T09:51:30.524Z,4.60
2023-01-26T09:54:42.935Z,4.60
2023-01-26T09:57:55.948Z,4.70
2023-01-26T10:01:06.167Z,4.90
2023-01-26T10:04:29.827Z,5.00
2023-01-26T10:07:38.259Z,5.00
2023-01-26T10:10:50.557Z,5.00
2023-01-26T10:14:04.527Z,5.10
2023-01-26T10:17:19.552Z,5.10
2023-01-26T10:20:32.368Z,5.10
2023-01-26T10:23:48.348Z,5.00
2023-01-26T10:26:59.449Z,5.10
2023-01-26T10:30:14.494Z,5.20
2023-01-26T10:33:28.862Z,5.20
2023-01-26T10:36:37.356Z,5.30
2023-01-26T10:39:59.814Z,5.30
2023-01-26T10:43:19.551Z,5.30
2023-01-26T10:46:32.761Z,5.30
2023-01-26T10:49:41.157Z,5.30
2023-01-26T10:53:00.619Z,5.30
2023-01-26T10:56:14.915Z,5.30
2023-01-26T10:59:28.993Z,5.30
2023-01-26T11:02:38.930Z,5.30
2023-01-26T11:05:48.264Z,5.30
2023-01-26T11:09:10.927Z,5.30
2023-01-26T11:12:20.486Z,5.20
2023-01-26T11:15:30.996Z,5.30
2023-01-26T11:18:48.056Z,5.50
2023-01-26T11:22:00.249Z,5.60
2023-01-26T11:25:19.104Z,5.60
2023-01-26T11:28:42.375Z,5.60
2023-01-26T11:31:58.713Z,5.70
2023-01-26T11:35:23.200Z,5.70
2023-01-26T11:38:39.757Z,5.80
2023-01-26T11:42:05.306Z,5.70
2023-01-26T11:45:23.143Z,5.60
2023-01-26T11:48:46.322Z,5.50
2023-01-26T11:52:09.476Z,5.50
2023-01-26T11:55:26.768Z,5.60
2023-01-26T11:58:40.441Z,5.50
2023-01-26T12:01:55.214Z,5.50
2023-01-26T12:05:14.592Z,5.50
2023-01-26T12:08:30.610Z,5.50
2023-01-26T12:11:43.904Z,5.50
2023-01-26T12:14:58.350Z,5.50
2023-01-26T12:18:15.518Z,5.50
2023-01-26T12:21:24.601Z,5.70
2023-01-26T12:28:19.870Z,5.80
2023-01-26T12:31:35.334Z,5.80
2023-01-26T12:34:44.166Z,5.90
2023-01-26T12:38:16.673Z,5.80
2023-01-26T12:41:36.546Z,5.80
2023-01-26T12:44:48.020Z,5.70
2023-01-26T12:48:02.764Z,5.60
2023-01-26T12:51:16.836Z,5.60
2023-01-26T12:54:35.550Z,5.70
2023-01-26T12:57:51.345Z,5.70
2023-01-26T13:01:05.360Z,5.80
2023-01-26T13:04:16.620Z,5.80
2023-01-26T13:07:37.130Z,5.80
2023-01-26T13:10:49.615Z,5.70
2023-01-26T13:13:59.558Z,5.70
2023-01-26T13:17:43.629Z,5.60
2023-01-26T13:20:52.662Z,5.40
2023-01-26T13:24:01.351Z,5.40
2023-01-26T13:27:30.125Z,5.40
2023-01-26T13:30:46.417Z,5.30
2023-01-26T13:33:55.444Z,5.30
2023-01-26T13:37:14.596Z,5.20
2023-01-26T13:40:26.229Z,5.20
2023-01-26T13:43:39.287Z,5.30
2023-01-26T13:46:55.622Z,5.10
2023-01-26T13:50:22.521Z,5.00
2023-01-26T13:53:36.252Z,5.00
2023-01-26T13:57:00.666Z,5.00
2023-01-26T14:00:13.619Z,5.00
2023-01-26T14:03:24.768Z,5.00
2023-01-26T14:06:34.280Z,4.90
2023-01-26T14:09:47.927Z,4.90
2023-01-26T14:13:04.879Z,4.80
2023-01-26T14:16:26.256Z,4.90
2023-01-26T14:19:41.946Z,4.90
2023-01-26T14:23:04.794Z,4.80
2023-01-26T14:26:20.670Z,4.80
2023-01-26T14:29:31.023Z,4.80
2023-01-26T14:32:40.276Z,4.80
2023-01-26T14:35:59.631Z,4.70
2023-01-26T14:39:18.383Z,4.70
2023-01-26T14:42:26.947Z,4.60
2023-01-26T14:45:35.485Z,4.60
2023-01-26T14:48:47.486Z,4.60
2023-01-26T14:51:59.221Z,4.50
2023-01-26T14:55:13.806Z,4.50
2023-01-26T14:58:25.179Z,4.40
2023-01-26T15:01:33.978Z,4.30
2023-01-26T15:04:45.539Z,4.30
2023-01-26T15:08:00.142Z,4.30
2023-01-26T15:11:26.146Z,4.10
2023-01-26T15:14:38.010Z,4.00
2023-01-26T15:17:47.952Z,4.00
2023-01-26T15:21:00.604Z,3.90
2023-01-26T15:24:15.298Z,3.80
2023-01-26T15:27:23.850Z,3.80
2023-01-26T15:30:37.033Z,3.70
2023-01-26T15:33:51.459Z,3.60
2023-01-26T15:37:00.874Z,3.60
2023-01-26T15:40:14.468Z,3.60
2023-01-26T15:43:23.808Z,3.50
2023-01-26T15:46:32.261Z,3.40
2023-01-26T15:49:42.757Z,3.30
2023-01-26T15:52:51.183Z,3.20
2023-01-26T15:56:01.571Z,3.20
2023-01-26T15:59:10.037Z,3.10
2023-01-26T16:02:20.187Z,3.10
2023-01-26T16:05:28.810Z,3.10
2023-01-26T16:08:37.199Z,3.00
2023-01-26T16:11:50.007Z,2.90
2023-01-26T16:14:58.474Z,2.80
2023-01-26T16:18:07.266Z,2.70
2023-01-26T16:21:22.168Z,2.70
2023-01-26T16:24:30.548Z,2.70
2023-01-26T16:27:40.327Z,2.70
2023-01-26T16:30:51.418Z,2.70
2023-01-26T16:34:01.089Z,2.70
2023-01-26T16:37:10.039Z,2.60
2023-01-26T16:40:20.412Z,2.60
2023-01-26T16:43:31.728Z,2.50
2023-01-26T16:46:40.159Z,2.50
2023-01-26T16:49:48.620Z,2.50
2023-01-26T16:52:57.198Z,2.50
2023-01-26T16:56:07.752Z,2.40
2023-01-26T16:59:18.015Z,2.40
2023-01-26T17:02:29.404Z,2.40
2023-01-26T17:05:38.392Z,2.30
2023-01-26T17:08:47.601Z,2.30
2023-01-26T17:11:56.079Z,2.30
2023-01-26T17:15:08.190Z,2.20
2023-01-26T17:18:17.909Z,2.20
2023-01-26T17:21:27.648Z,2.10
2023-01-26T17:24:36.075Z,2.10
2023-01-26T17:27:44.478Z,2.00
2023-01-26T17:30:54.537Z,2.10
2023-01-26T17:34:02.984Z,2.10
2023-01-26T17:37:11.434Z,2.00
2023-01-26T17:40:20.057Z,2.00
2023-01-26T17:43:28.731Z,1.90
2023-01-26T17:46:40.615Z,1.80
2023-01-26T17:49:49.100Z,1.80
2023-01-26T17:52:57.472Z,1.80
2023-01-26T17:56:08.424Z,1.80
2023-01-26T17:59:17.268Z,1.80
2023-01-26T18:02:27.308Z,1.70
2023-01-26T18:05:35.783Z,1.70
2023-01-26T18:08:44.300Z,1.70
2023-01-26T18:11:52.729Z,1.70
2023-01-26T18:15:01.155Z,1.60
2023-01-26T18:18:12.248Z,1.60
2023-01-26T18:21:22.931Z,1.60
2023-01-26T18:24:31.783Z,1.60
2023-01-26T18:27:40.307Z,1.60
2023-01-26T18:30:48.804Z,1.60
2023-01-26T18:34:00.191Z,1.50
2023-01-26T18:37:09.048Z,1.50
2023-01-26T18:40:18.102Z,1.40
2023-01-26T18:43:32.618Z,1.40
2023-01-26T18:46:41.063Z,1.40
2023-01-26T18:49:50.840Z,1.30
2023-01-26T18:52:59.250Z,1.30
2023-01-26T18:56:09.408Z,1.30
2023-01-26T18:59:18.655Z,1.20
2023-01-26T19:02:33.638Z,1.20
2023-01-26T19:05:43.633Z,1.20
2023-01-26T19:08:58.417Z,1.10
2023-01-26T19:12:08.303Z,1.20
2023-01-26T19:15:16.809Z,1.10
2023-01-26T19:18:25.307Z,1.10
2023-01-26T19:21:35.289Z,1.10
2023-01-26T19:24:44.068Z,1.00
2023-01-26T19:27:52.567Z,1.00
2023-01-26T19:31:05.083Z,1.00
2023-01-26T19:34:16.985Z,1.00
2023-01-26T19:37:26.864Z,1.00
2023-01-26T19:40:35.366Z,0.90
2023-01-26T19:43:44.367Z,0.90
2023-01-26T19:46:54.498Z,0.90
2023-01-26T19:50:04.482Z,0.90
2023-01-26T19:53:14.582Z,0.80
2023-01-26T19:56:25.274Z,0.80
2023-01-26T19:59:33.674Z,0.80
2023-01-26T20:02:42.171Z,0.70
2023-01-26T20:05:51.226Z,0.70
2023-01-26T20:09:03.500Z,0.60
2023-01-26T20:12:12.175Z,0.60
2023-01-26T20:15:20.745Z,0.70
2023-01-26T20:18:29.199Z,0.70
2023-01-26T20:21:38.846Z,0.70
2023-01-26T20:24:48.703Z,0.60
2023-01-26T20:27:57.254Z,0.60
2023-01-26T20:31:08.240Z,0.60
2023-01-26T20:34:17.306Z,0.60
2023-01-26T20:37:25.771Z,0.50
2023-01-26T20:40:35.569Z,0.60
2023-01-26T20:43:58.801Z,0.50
2023-01-26T20:47:08.296Z,0.50
2023-01-26T20:50:16.829Z,0.50
2023-01-26T20:53:25.448Z,0.50
2023-01-26T20:56:36.501Z,0.50
2023-01-26T20:59:45.839Z,0.50
2023-01-26T21:02:54.407Z,0.40
2023-01-26T21:06:03.145Z,0.40
2023-01-26T21:09:13.015Z,0.40
2023-01-26T21:12:22.983Z,0.30
2023-01-26T21:15:31.370Z,0.30
2023-01-26T21:18:39.903Z,0.30
2023-01-26T21:21:48.499Z,0.30
2023-01-26T21:24:56.913Z,0.20
2023-01-26T21:28:06.971Z,0.20
2023-01-26T21:31:16.873Z,0.20
2023-01-26T21:34:25.319Z,0.20
2023-01-26T21:37:34.145Z,0.10
2023-01-26T21:40:42.560Z,0.10
2023-01-26T21:43:56.119Z,0.10
2023-01-26T21:47:06.071Z,0.00
2023-01-26T21:50:34.568Z,0.10
2023-01-26T21:53:43.781Z,0.00
2023-01-26T21:56:52.417Z,0.00
2023-01-26T22:00:02.165Z,-0.10
2023-01-26T22:03:13.459Z,-0.10
2023-01-26T22:06:21.908Z,-0.10
2023-01-26T22:09:30.592Z,0.00
2023-01-26T22:12:39.188Z,0.00
2023-01-26T22:15:49.047Z,0.00
2023-01-26T22:18:57.605Z,0.00
2023-01-26T22:22:06.128Z,-0.10
2023-01-26T22:25:15.304Z,0.00
2023-01-26T22:28:23.786Z,-0.10
2023-01-26T22:31:33.695Z,-0.10
2023-01-26T22:34:42.158Z,-0.10
2023-01-26T22:37:50.823Z,-0.20
2023-01-26T22:40:59.378Z,-0.20
2023-01-26T22:44:07.925Z,-0.20
2023-01-26T22:47:17.697Z,-0.20
2023-01-26T22:50:26.320Z,-0.20
2023-01-26T22:53:34.825Z,-0.30
2023-01-26T22:56:43.306Z,-0.30
2023-01-26T22:59:51.735Z,-0.30
2023-01-26T23:03:02.795Z,-0.30
2023-01-26T23:06:13.435Z,-0.40
2023-01-26T23:09:22.017Z,-0.40
2023-01-26T23:12:40.187Z,-0.40
2023-01-26T23:15:48.664Z,-0.40
2023-01-26T23:18:59.411Z,-0.40
2023-01-26T23:22:07.803Z,-0.50
2023-01-26T23:25:34.087Z,-0.40
2023-01-26T23:28:44.656Z,-0.50
2023-01-26T23:31:53.418Z,-0.50
2023-01-26T23:35:03.277Z,-0.50
2023-01-26T23:38:12.199Z,-0.50
2023-01-26T23:41:20.931Z,-0.50
2023-01-26T23:44:29.385Z,-0.50
2023-01-26T23:47:38.017Z,-0.50
2023-01-26T23:50:48.093Z,-0.60
2023-01-26T23:53:56.952Z,-0.60
2023-01-26T23:57:05.533Z,-0.60
